sensor_id;sensor_type;location;lat;lon;timestamp;pressure;altitude;pressure_sealevel;temperature;humidity
61478;BME280;47345;52.334;10.392;2023-04-22T00:00:47;100473.74;;;11.47;60.54
61478;BME280;47345;52.334;10.392;2023-04-22T00:03:18;100471.00;;;11.47;60.75
61478;BME280;47345;52.334;10.392;2023-04-22T00:05:50;100474.55;;;11.46;60.66
61478;BME280;47345;52.334;10.392;2023-04-22T00:08:21;100471.44;;;11.45;60.70
61478;BME280;47345;52.334;10.392;2023-04-22T00:10:51;100469.55;;;11.44;60.74
61478;BME280;47345;52.334;10.392;2023-04-22T00:13:21;100466.10;;;11.43;60.89
61478;BME280;47345;52.334;10.392;2023-04-22T00:15:53;100466.40;;;11.42;60.97
61478;BME280;47345;52.334;10.392;2023-04-22T00:18:23;100463.63;;;11.40;61.07
61478;BME280;47345;52.334;10.392;2023-04-22T00:20:54;100460.40;;;11.36;61.18
61478;BME280;47345;52.334;10.392;2023-04-22T00:23:25;100459.08;;;11.32;61.35
61478;BME280;47345;52.334;10.392;2023-04-22T00:25:55;100450.85;;;11.28;61.46
61478;BME280;47345;52.334;10.392;2023-04-22T00:28:26;100449.48;;;11.23;61.66
61478;BME280;47345;52.334;10.392;2023-04-22T00:30:56;100447.79;;;11.17;61.74
61478;BME280;47345;52.334;10.392;2023-04-22T00:33:27;100442.73;;;11.12;61.91
61478;BME280;47345;52.334;10.392;2023-04-22T00:35:57;100443.67;;;11.08;62.15
61478;BME280;47345;52.334;10.392;2023-04-22T00:38:29;100441.00;;;11.02;62.31
61478;BME280;47345;52.334;10.392;2023-04-22T00:40:59;100441.36;;;10.98;62.47
61478;BME280;47345;52.334;10.392;2023-04-22T00:43:30;100440.11;;;10.94;62.61
61478;BME280;47345;52.334;10.392;2023-04-22T00:46:01;100438.45;;;10.90;62.70
61478;BME280;47345;52.334;10.392;2023-04-22T00:48:33;100438.54;;;10.87;62.90
61478;BME280;47345;52.334;10.392;2023-04-22T00:51:04;100431.86;;;10.81;63.08
61478;BME280;47345;52.334;10.392;2023-04-22T00:53:35;100428.88;;;10.77;63.23
61478;BME280;47345;52.334;10.392;2023-04-22T00:56:06;100429.39;;;10.75;63.33
61478;BME280;47345;52.334;10.392;2023-04-22T00:58:36;100427.35;;;10.73;63.42
61478;BME280;47345;52.334;10.392;2023-04-22T01:01:07;100425.38;;;10.71;63.47
61478;BME280;47345;52.334;10.392;2023-04-22T01:03:38;100421.55;;;10.70;63.61
61478;BME280;47345;52.334;10.392;2023-04-22T01:06:09;100423.15;;;10.68;63.65
61478;BME280;47345;52.334;10.392;2023-04-22T01:08:40;100421.81;;;10.66;63.73
61478;BME280;47345;52.334;10.392;2023-04-22T01:11:11;100421.27;;;10.66;63.53
61478;BME280;47345;52.334;10.392;2023-04-22T01:13:42;100422.53;;;10.66;63.71
61478;BME280;47345;52.334;10.392;2023-04-22T01:16:13;100416.92;;;10.67;63.73
61478;BME280;47345;52.334;10.392;2023-04-22T01:18:44;100416.05;;;10.67;63.67
61478;BME280;47345;52.334;10.392;2023-04-22T01:21:14;100415.71;;;10.66;63.68
61478;BME280;47345;52.334;10.392;2023-04-22T01:23:45;100416.77;;;10.67;63.64
61478;BME280;47345;52.334;10.392;2023-04-22T01:26:16;100412.17;;;10.67;63.76
61478;BME280;47345;52.334;10.392;2023-04-22T01:28:46;100408.48;;;10.66;63.69
61478;BME280;47345;52.334;10.392;2023-04-22T01:31:17;100406.63;;;10.65;63.85
61478;BME280;47345;52.334;10.392;2023-04-22T01:33:48;100406.67;;;10.63;64.02
61478;BME280;47345;52.334;10.392;2023-04-22T01:36:19;100404.67;;;10.60;64.14
61478;BME280;47345;52.334;10.392;2023-04-22T01:38:50;100410.54;;;10.57;64.06
61478;BME280;47345;52.334;10.392;2023-04-22T01:41:20;100405.61;;;10.56;64.35
61478;BME280;47345;52.334;10.392;2023-04-22T01:43:51;100403.23;;;10.55;64.21
61478;BME280;47345;52.334;10.392;2023-04-22T01:46:22;100408.77;;;10.53;64.34
61478;BME280;47345;52.334;10.392;2023-04-22T01:48:53;100409.42;;;10.53;64.43
61478;BME280;47345;52.334;10.392;2023-04-22T01:51:24;100410.63;;;10.52;64.55
61478;BME280;47345;52.334;10.392;2023-04-22T01:53:54;100416.45;;;10.51;64.58
61478;BME280;47345;52.334;10.392;2023-04-22T01:56:25;100418.55;;;10.48;64.87
61478;BME280;47345;52.334;10.392;2023-04-22T01:58:56;100407.58;;;10.46;64.86
61478;BME280;47345;52.334;10.392;2023-04-22T02:01:26;100401.90;;;10.44;64.66
61478;BME280;47345;52.334;10.392;2023-04-22T02:03:57;100398.22;;;10.41;64.81
61478;BME280;47345;52.334;10.392;2023-04-22T02:06:28;100401.57;;;10.39;64.89
61478;BME280;47345;52.334;10.392;2023-04-22T02:08:59;100406.77;;;10.38;65.01
61478;BME280;47345;52.334;10.392;2023-04-22T02:11:30;100409.59;;;10.38;65.38
61478;BME280;47345;52.334;10.392;2023-04-22T02:14:01;100405.46;;;10.38;65.42
61478;BME280;47345;52.334;10.392;2023-04-22T02:16:31;100401.77;;;10.35;65.54
61478;BME280;47345;52.334;10.392;2023-04-22T02:19:02;100400.30;;;10.34;65.56
61478;BME280;47345;52.334;10.392;2023-04-22T02:21:32;100400.23;;;10.33;65.59
61478;BME280;47345;52.334;10.392;2023-04-22T02:24:03;100402.16;;;10.32;65.78
61478;BME280;47345;52.334;10.392;2023-04-22T02:26:33;100392.02;;;10.32;65.65
61478;BME280;47345;52.334;10.392;2023-04-22T02:29:04;100383.86;;;10.31;65.62
61478;BME280;47345;52.334;10.392;2023-04-22T02:31:34;100384.74;;;10.31;65.59
61478;BME280;47345;52.334;10.392;2023-04-22T02:34:05;100390.13;;;10.32;65.68
61478;BME280;47345;52.334;10.392;2023-04-22T02:36:36;100392.73;;;10.33;65.67
61478;BME280;47345;52.334;10.392;2023-04-22T02:39:07;100392.27;;;10.34;65.78
61478;BME280;47345;52.334;10.392;2023-04-22T02:41:37;100393.95;;;10.35;65.91
61478;BME280;47345;52.334;10.392;2023-04-22T02:44:08;100391.71;;;10.37;65.91
61478;BME280;47345;52.334;10.392;2023-04-22T02:46:38;100383.17;;;10.36;65.88
61478;BME280;47345;52.334;10.392;2023-04-22T02:49:09;100379.97;;;10.38;65.97
61478;BME280;47345;52.334;10.392;2023-04-22T02:51:39;100376.55;;;10.40;65.86
61478;BME280;47345;52.334;10.392;2023-04-22T02:54:10;100371.30;;;10.39;65.92
61478;BME280;47345;52.334;10.392;2023-04-22T02:56:40;100370.05;;;10.39;65.96
61478;BME280;47345;52.334;10.392;2023-04-22T02:59:10;100373.75;;;10.39;65.93
61478;BME280;47345;52.334;10.392;2023-04-22T03:01:41;100372.40;;;10.38;65.84
61478;BME280;47345;52.334;10.392;2023-04-22T03:04:12;100377.08;;;10.37;66.01
61478;BME280;47345;52.334;10.392;2023-04-22T03:06:43;100371.48;;;10.35;66.12
61478;BME280;47345;52.334;10.392;2023-04-22T03:09:14;100368.96;;;10.33;66.15
61478;BME280;47345;52.334;10.392;2023-04-22T03:11:45;100363.92;;;10.32;66.20
61478;BME280;47345;52.334;10.392;2023-04-22T03:14:15;100359.23;;;10.30;66.19
61478;BME280;47345;52.334;10.392;2023-04-22T03:16:46;100358.38;;;10.30;66.25
61478;BME280;47345;52.334;10.392;2023-04-22T03:19:16;100358.30;;;10.29;66.46
61478;BME280;47345;52.334;10.392;2023-04-22T03:21:46;100356.58;;;10.28;66.43
61478;BME280;47345;52.334;10.392;2023-04-22T03:24:17;100358.25;;;10.28;66.57
61478;BME280;47345;52.334;10.392;2023-04-22T03:26:48;100359.43;;;10.27;66.53
61478;BME280;47345;52.334;10.392;2023-04-22T03:29:18;100358.38;;;10.27;66.84
61478;BME280;47345;52.334;10.392;2023-04-22T03:31:49;100365.11;;;10.27;66.94
61478;BME280;47345;52.334;10.392;2023-04-22T03:34:19;100366.45;;;10.28;67.13
61478;BME280;47345;52.334;10.392;2023-04-22T03:36:50;100367.20;;;10.29;67.24
61478;BME280;47345;52.334;10.392;2023-04-22T03:39:20;100361.03;;;10.30;67.31
61478;BME280;47345;52.334;10.392;2023-04-22T03:41:51;100352.54;;;10.33;67.22
61478;BME280;47345;52.334;10.392;2023-04-22T03:44:22;100351.09;;;10.33;66.98
61478;BME280;47345;52.334;10.392;2023-04-22T03:46:52;100353.10;;;10.35;66.85
61478;BME280;47345;52.334;10.392;2023-04-22T03:49:23;100349.36;;;10.36;66.63
61478;BME280;47345;52.334;10.392;2023-04-22T03:51:54;100350.96;;;10.36;66.55
61478;BME280;47345;52.334;10.392;2023-04-22T03:54:25;100351.93;;;10.36;66.71
61478;BME280;47345;52.334;10.392;2023-04-22T03:56:56;100348.60;;;10.34;66.74
61478;BME280;47345;52.334;10.392;2023-04-22T03:59:26;100345.33;;;10.33;66.66
61478;BME280;47345;52.334;10.392;2023-04-22T04:01:57;100347.84;;;10.32;66.76
61478;BME280;47345;52.334;10.392;2023-04-22T04:04:28;100343.78;;;10.30;66.82
61478;BME280;47345;52.334;10.392;2023-04-22T04:06:59;100342.90;;;10.28;66.90
61478;BME280;47345;52.334;10.392;2023-04-22T04:09:29;100340.64;;;10.26;66.92
61478;BME280;47345;52.334;10.392;2023-04-22T04:12:00;100341.70;;;10.24;66.92
61478;BME280;47345;52.334;10.392;2023-04-22T04:14:31;100351.50;;;10.23;67.16
61478;BME280;47345;52.334;10.392;2023-04-22T04:17:01;100350.30;;;10.21;67.32
61478;BME280;47345;52.334;10.392;2023-04-22T04:19:32;100351.17;;;10.20;67.35
61478;BME280;47345;52.334;10.392;2023-04-22T04:22:02;100353.69;;;10.19;67.56
61478;BME280;47345;52.334;10.392;2023-04-22T04:24:33;100354.70;;;10.17;67.77
61478;BME280;47345;52.334;10.392;2023-04-22T04:27:05;100359.81;;;10.15;67.78
61478;BME280;47345;52.334;10.392;2023-04-22T04:29:35;100361.28;;;10.14;67.77
61478;BME280;47345;52.334;10.392;2023-04-22T04:32:06;100360.14;;;10.12;67.95
61478;BME280;47345;52.334;10.392;2023-04-22T04:34:37;100360.77;;;10.11;68.01
61478;BME280;47345;52.334;10.392;2023-04-22T04:37:09;100354.98;;;10.10;68.10
61478;BME280;47345;52.334;10.392;2023-04-22T04:39:39;100354.15;;;10.08;68.20
61478;BME280;47345;52.334;10.392;2023-04-22T04:42:11;100350.08;;;10.06;68.11
61478;BME280;47345;52.334;10.392;2023-04-22T04:44:42;100354.38;;;10.05;68.24
61478;BME280;47345;52.334;10.392;2023-04-22T04:47:12;100351.94;;;10.04;68.46
61478;BME280;47345;52.334;10.392;2023-04-22T04:49:43;100353.75;;;10.04;68.67
61478;BME280;47345;52.334;10.392;2023-04-22T04:52:14;100351.59;;;10.04;68.75
61478;BME280;47345;52.334;10.392;2023-04-22T04:54:44;100355.13;;;10.04;68.86
61478;BME280;47345;52.334;10.392;2023-04-22T04:57:15;100351.02;;;10.05;69.04
61478;BME280;47345;52.334;10.392;2023-04-22T04:59:45;100351.23;;;10.07;69.13
61478;BME280;47345;52.334;10.392;2023-04-22T05:02:16;100352.11;;;10.08;69.11
61478;BME280;47345;52.334;10.392;2023-04-22T05:04:47;100352.45;;;10.09;69.15
61478;BME280;47345;52.334;10.392;2023-04-22T05:07:18;100348.37;;;10.11;69.23
61478;BME280;47345;52.334;10.392;2023-04-22T05:09:48;100346.86;;;10.13;69.19
61478;BME280;47345;52.334;10.392;2023-04-22T05:12:18;100345.95;;;10.15;69.25
61478;BME280;47345;52.334;10.392;2023-04-22T05:14:49;100344.83;;;10.17;69.16
61478;BME280;47345;52.334;10.392;2023-04-22T05:17:20;100344.48;;;10.21;69.34
61478;BME280;47345;52.334;10.392;2023-04-22T05:19:50;100341.61;;;10.25;69.42
61478;BME280;47345;52.334;10.392;2023-04-22T05:22:21;100337.64;;;10.28;69.30
61478;BME280;47345;52.334;10.392;2023-04-22T05:24:51;100333.27;;;10.31;69.43
61478;BME280;47345;52.334;10.392;2023-04-22T05:27:22;100329.51;;;10.36;69.34
61478;BME280;47345;52.334;10.392;2023-04-22T05:29:53;100330.02;;;10.40;69.50
61478;BME280;47345;52.334;10.392;2023-04-22T05:32:23;100325.77;;;10.44;69.52
61478;BME280;47345;52.334;10.392;2023-04-22T05:34:53;100333.54;;;10.49;69.38
61478;BME280;47345;52.334;10.392;2023-04-22T05:37:24;100331.90;;;10.54;69.43
61478;BME280;47345;52.334;10.392;2023-04-22T05:39:54;100336.30;;;10.59;69.29
61478;BME280;47345;52.334;10.392;2023-04-22T05:42:25;100337.58;;;10.64;69.41
61478;BME280;47345;52.334;10.392;2023-04-22T05:44:55;100335.79;;;10.69;69.36
61478;BME280;47345;52.334;10.392;2023-04-22T05:47:25;100327.85;;;10.74;69.31
61478;BME280;47345;52.334;10.392;2023-04-22T05:49:56;100333.55;;;10.80;69.21
61478;BME280;47345;52.334;10.392;2023-04-22T05:52:27;100337.30;;;10.85;69.13
61478;BME280;47345;52.334;10.392;2023-04-22T05:54:57;100339.52;;;10.90;68.99
61478;BME280;47345;52.334;10.392;2023-04-22T05:57:27;100339.23;;;10.95;69.06
61478;BME280;47345;52.334;10.392;2023-04-22T05:59:59;100338.02;;;11.00;69.14
61478;BME280;47345;52.334;10.392;2023-04-22T06:02:30;100340.88;;;11.05;69.12
61478;BME280;47345;52.334;10.392;2023-04-22T06:05:01;100343.94;;;11.09;68.98
61478;BME280;47345;52.334;10.392;2023-04-22T06:07:32;100344.47;;;11.16;69.03
61478;BME280;47345;52.334;10.392;2023-04-22T06:10:03;100343.85;;;11.21;69.00
61478;BME280;47345;52.334;10.392;2023-04-22T06:12:34;100347.30;;;11.28;69.01
61478;BME280;47345;52.334;10.392;2023-04-22T06:15:06;100348.61;;;11.34;69.22
61478;BME280;47345;52.334;10.392;2023-04-22T06:17:37;100346.02;;;11.41;69.24
61478;BME280;47345;52.334;10.392;2023-04-22T06:20:09;100343.33;;;11.47;68.74
61478;BME280;47345;52.334;10.392;2023-04-22T06:22:39;100343.94;;;11.54;68.58
61478;BME280;47345;52.334;10.392;2023-04-22T06:25:10;100338.92;;;11.60;68.60
61478;BME280;47345;52.334;10.392;2023-04-22T06:27:41;100339.44;;;11.66;68.53
61478;BME280;47345;52.334;10.392;2023-04-22T06:30:12;100339.30;;;11.74;68.42
61478;BME280;47345;52.334;10.392;2023-04-22T06:32:42;100339.83;;;11.80;68.40
61478;BME280;47345;52.334;10.392;2023-04-22T06:35:13;100344.29;;;11.86;68.19
61478;BME280;47345;52.334;10.392;2023-04-22T06:37:43;100340.39;;;11.92;68.03
61478;BME280;47345;52.334;10.392;2023-04-22T06:40:14;100334.09;;;11.99;67.91
61478;BME280;47345;52.334;10.392;2023-04-22T06:42:44;100334.17;;;12.06;67.93
61478;BME280;47345;52.334;10.392;2023-04-22T06:45:15;100335.27;;;12.14;67.83
61478;BME280;47345;52.334;10.392;2023-04-22T06:47:46;100339.02;;;12.22;67.59
61478;BME280;47345;52.334;10.392;2023-04-22T06:50:16;100334.27;;;12.29;67.59
61478;BME280;47345;52.334;10.392;2023-04-22T06:52:47;100332.71;;;12.38;67.29
61478;BME280;47345;52.334;10.392;2023-04-22T06:55:17;100331.42;;;12.46;67.23
61478;BME280;47345;52.334;10.392;2023-04-22T06:57:48;100329.86;;;12.53;67.20
61478;BME280;47345;52.334;10.392;2023-04-22T07:00:19;100327.85;;;12.59;67.34
61478;BME280;47345;52.334;10.392;2023-04-22T07:02:49;100326.41;;;12.65;67.07
61478;BME280;47345;52.334;10.392;2023-04-22T07:05:20;100325.27;;;12.72;67.15
61478;BME280;47345;52.334;10.392;2023-04-22T07:07:50;100324.31;;;12.81;67.14
61478;BME280;47345;52.334;10.392;2023-04-22T07:10:21;100320.42;;;12.87;66.93
61478;BME280;47345;52.334;10.392;2023-04-22T07:12:51;100319.69;;;12.94;66.79
61478;BME280;47345;52.334;10.392;2023-04-22T07:15:22;100322.15;;;13.02;66.67
61478;BME280;47345;52.334;10.392;2023-04-22T07:17:52;100321.95;;;13.10;66.53
61478;BME280;47345;52.334;10.392;2023-04-22T07:20:24;100320.23;;;13.18;66.66
61478;BME280;47345;52.334;10.392;2023-04-22T07:22:54;100317.17;;;13.24;66.53
61478;BME280;47345;52.334;10.392;2023-04-22T07:25:24;100318.02;;;13.31;66.55
61478;BME280;47345;52.334;10.392;2023-04-22T07:27:55;100321.11;;;13.36;66.62
61478;BME280;47345;52.334;10.392;2023-04-22T07:30:25;100316.44;;;13.41;66.39
61478;BME280;47345;52.334;10.392;2023-04-22T07:32:56;100313.30;;;13.47;66.48
61478;BME280;47345;52.334;10.392;2023-04-22T07:35:26;100312.17;;;13.57;66.47
61478;BME280;47345;52.334;10.392;2023-04-22T07:37:58;100311.47;;;13.67;66.29
61478;BME280;47345;52.334;10.392;2023-04-22T07:40:28;100308.33;;;13.76;66.05
61478;BME280;47345;52.334;10.392;2023-04-22T07:42:59;100304.14;;;13.83;65.84
61478;BME280;47345;52.334;10.392;2023-04-22T07:45:29;100307.22;;;13.91;66.12
61478;BME280;47345;52.334;10.392;2023-04-22T07:48:00;100307.67;;;13.96;66.02
61478;BME280;47345;52.334;10.392;2023-04-22T07:50:31;100306.94;;;14.03;66.16
61478;BME280;47345;52.334;10.392;2023-04-22T07:53:01;100305.94;;;14.12;65.67
61478;BME280;47345;52.334;10.392;2023-04-22T07:55:32;100304.42;;;14.22;65.39
61478;BME280;47345;52.334;10.392;2023-04-22T07:58:02;100305.50;;;14.30;65.17
61478;BME280;47345;52.334;10.392;2023-04-22T08:00:35;100305.17;;;14.39;65.55
61478;BME280;47345;52.334;10.392;2023-04-22T08:03:06;100303.95;;;14.47;65.81
61478;BME280;47345;52.334;10.392;2023-04-22T08:05:38;100304.05;;;14.54;65.89
61478;BME280;47345;52.334;10.392;2023-04-22T08:08:08;100301.80;;;14.60;65.72
61478;BME280;47345;52.334;10.392;2023-04-22T08:10:39;100302.45;;;14.68;65.22
61478;BME280;47345;52.334;10.392;2023-04-22T08:13:09;100298.08;;;14.76;65.28
61478;BME280;47345;52.334;10.392;2023-04-22T08:15:40;100293.21;;;14.85;64.61
61478;BME280;47345;52.334;10.392;2023-04-22T08:18:10;100293.52;;;14.93;64.41
61478;BME280;47345;52.334;10.392;2023-04-22T08:20:41;100287.67;;;14.99;64.21
61478;BME280;47345;52.334;10.392;2023-04-22T08:23:11;100286.16;;;15.03;64.54
61478;BME280;47345;52.334;10.392;2023-04-22T08:25:42;100287.59;;;15.10;64.26
61478;BME280;47345;52.334;10.392;2023-04-22T08:28:12;100290.25;;;15.16;64.12
61478;BME280;47345;52.334;10.392;2023-04-22T08:30:43;100289.88;;;15.24;63.66
61478;BME280;47345;52.334;10.392;2023-04-22T08:33:14;100292.17;;;15.33;63.67
61478;BME280;47345;52.334;10.392;2023-04-22T08:35:44;100289.96;;;15.44;63.21
61478;BME280;47345;52.334;10.392;2023-04-22T08:38:15;100283.18;;;15.57;62.60
61478;BME280;47345;52.334;10.392;2023-04-22T08:40:46;100282.44;;;15.66;61.74
61478;BME280;47345;52.334;10.392;2023-04-22T08:43:16;100282.84;;;15.75;62.27
61478;BME280;47345;52.334;10.392;2023-04-22T08:45:47;100281.52;;;15.86;61.93
61478;BME280;47345;52.334;10.392;2023-04-22T08:48:18;100279.02;;;15.92;61.90
61478;BME280;47345;52.334;10.392;2023-04-22T08:50:50;100275.79;;;15.98;62.26
61478;BME280;47345;52.334;10.392;2023-04-22T08:53:22;100276.42;;;16.04;62.00
61478;BME280;47345;52.334;10.392;2023-04-22T08:55:55;100276.05;;;16.09;61.30
61478;BME280;47345;52.334;10.392;2023-04-22T08:58:28;100276.38;;;16.17;60.91
61478;BME280;47345;52.334;10.392;2023-04-22T09:01:01;100274.38;;;16.25;60.93
61478;BME280;47345;52.334;10.392;2023-04-22T09:03:32;100268.20;;;16.33;60.63
61478;BME280;47345;52.334;10.392;2023-04-22T09:06:04;100269.13;;;16.42;60.82
61478;BME280;47345;52.334;10.392;2023-04-22T09:08:36;100265.97;;;16.52;60.51
61478;BME280;47345;52.334;10.392;2023-04-22T09:11:08;100265.56;;;16.60;60.20
61478;BME280;47345;52.334;10.392;2023-04-22T09:13:39;100266.69;;;16.68;59.07
61478;BME280;47345;52.334;10.392;2023-04-22T09:16:11;100263.64;;;16.77;59.12
61478;BME280;47345;52.334;10.392;2023-04-22T09:18:43;100263.83;;;16.84;59.62
61478;BME280;47345;52.334;10.392;2023-04-22T09:21:14;100261.61;;;16.89;58.64
61478;BME280;47345;52.334;10.392;2023-04-22T09:23:49;100259.05;;;16.93;58.54
61478;BME280;47345;52.334;10.392;2023-04-22T09:26:21;100258.48;;;16.97;58.81
61478;BME280;47345;52.334;10.392;2023-04-22T09:28:53;100254.48;;;16.99;58.81
61478;BME280;47345;52.334;10.392;2023-04-22T09:31:27;100253.08;;;17.02;58.64
61478;BME280;47345;52.334;10.392;2023-04-22T09:33:59;100250.63;;;17.05;59.03
61478;BME280;47345;52.334;10.392;2023-04-22T09:36:30;100251.36;;;17.07;58.95
61478;BME280;47345;52.334;10.392;2023-04-22T09:39:03;100250.68;;;17.13;58.89
61478;BME280;47345;52.334;10.392;2023-04-22T09:41:35;100250.59;;;17.21;58.62
61478;BME280;47345;52.334;10.392;2023-04-22T09:44:10;100248.75;;;17.26;58.33
61478;BME280;47345;52.334;10.392;2023-04-22T09:46:43;100249.35;;;17.31;58.02
61478;BME280;47345;52.334;10.392;2023-04-22T09:49:16;100241.88;;;17.37;57.87
61478;BME280;47345;52.334;10.392;2023-04-22T09:51:46;100239.77;;;17.44;57.86
61478;BME280;47345;52.334;10.392;2023-04-22T09:54:18;100235.52;;;17.47;57.46
61478;BME280;47345;52.334;10.392;2023-04-22T09:56:49;100234.69;;;17.57;57.35
61478;BME280;47345;52.334;10.392;2023-04-22T09:59:24;100234.46;;;17.63;57.89
61478;BME280;47345;52.334;10.392;2023-04-22T10:01:58;100227.18;;;17.68;57.79
61478;BME280;47345;52.334;10.392;2023-04-22T10:04:31;100225.12;;;17.73;57.64
61478;BME280;47345;52.334;10.392;2023-04-22T10:07:02;100221.99;;;17.78;57.16
61478;BME280;47345;52.334;10.392;2023-04-22T10:09:33;100219.54;;;17.85;57.34
61478;BME280;47345;52.334;10.392;2023-04-22T10:12:05;100216.09;;;17.92;57.20
61478;BME280;47345;52.334;10.392;2023-04-22T10:14:36;100212.31;;;17.99;57.78
61478;BME280;47345;52.334;10.392;2023-04-22T10:17:07;100209.14;;;18.06;57.14
61478;BME280;47345;52.334;10.392;2023-04-22T10:19:41;100207.46;;;18.16;57.59
61478;BME280;47345;52.334;10.392;2023-04-22T10:22:15;100199.73;;;18.24;57.77
61478;BME280;47345;52.334;10.392;2023-04-22T10:24:47;100195.77;;;18.32;57.55
61478;BME280;47345;52.334;10.392;2023-04-22T10:27:23;100190.48;;;18.41;57.58
61478;BME280;47345;52.334;10.392;2023-04-22T10:29:56;100186.02;;;18.51;57.89
61478;BME280;47345;52.334;10.392;2023-04-22T10:32:27;100187.80;;;18.57;58.09
61478;BME280;47345;52.334;10.392;2023-04-22T10:35:13;100183.14;;;18.64;57.91
61478;BME280;47345;52.334;10.392;2023-04-22T10:37:46;100182.94;;;18.71;57.47
61478;BME280;47345;52.334;10.392;2023-04-22T10:40:18;100185.70;;;18.81;56.55
61478;BME280;47345;52.334;10.392;2023-04-22T10:42:52;100182.83;;;18.86;56.51
61478;BME280;47345;52.334;10.392;2023-04-22T10:45:25;100179.40;;;18.91;56.29
61478;BME280;47345;52.334;10.392;2023-04-22T10:47:56;100177.20;;;18.94;56.81
61478;BME280;47345;52.334;10.392;2023-04-22T10:50:32;100173.73;;;18.98;57.40
61478;BME280;47345;52.334;10.392;2023-04-22T10:53:35;100167.40;;;19.06;57.02
61478;BME280;47345;52.334;10.392;2023-04-22T10:56:17;100170.92;;;19.11;56.93
61478;BME280;47345;52.334;10.392;2023-04-22T10:58:49;100172.05;;;19.15;56.37
61478;BME280;47345;52.334;10.392;2023-04-22T11:01:19;100167.66;;;19.17;56.81
61478;BME280;47345;52.334;10.392;2023-04-22T11:03:51;100162.89;;;19.20;57.41
61478;BME280;47345;52.334;10.392;2023-04-22T11:06:21;100155.67;;;19.24;57.69
61478;BME280;47345;52.334;10.392;2023-04-22T11:09:09;100155.61;;;19.28;57.70
61478;BME280;47345;52.334;10.392;2023-04-22T11:11:40;100156.83;;;19.36;57.25
61478;BME280;47345;52.334;10.392;2023-04-22T11:14:11;100151.42;;;19.45;56.72
61478;BME280;47345;52.334;10.392;2023-04-22T11:16:46;100139.86;;;19.54;56.45
61478;BME280;47345;52.334;10.392;2023-04-22T11:19:16;100136.31;;;19.61;56.66
61478;BME280;47345;52.334;10.392;2023-04-22T11:21:47;100135.36;;;19.67;57.26
61478;BME280;47345;52.334;10.392;2023-04-22T11:24:19;100130.12;;;19.73;57.35
61478;BME280;47345;52.334;10.392;2023-04-22T11:26:53;100132.70;;;19.80;56.50
61478;BME280;47345;52.334;10.392;2023-04-22T11:29:26;100123.46;;;19.85;56.31
61478;BME280;47345;52.334;10.392;2023-04-22T11:31:57;100128.46;;;19.90;56.12
61478;BME280;47345;52.334;10.392;2023-04-22T11:34:28;100126.51;;;19.95;56.15
61478;BME280;47345;52.334;10.392;2023-04-22T11:36:59;100122.91;;;20.00;56.14
61478;BME280;47345;52.334;10.392;2023-04-22T11:39:36;100121.00;;;20.04;56.60
61478;BME280;47345;52.334;10.392;2023-04-22T11:42:24;100109.34;;;20.06;55.18
61478;BME280;47345;52.334;10.392;2023-04-22T11:44:55;100114.44;;;20.10;55.22
61478;BME280;47345;52.334;10.392;2023-04-22T11:47:27;100115.85;;;20.13;54.52
61478;BME280;47345;52.334;10.392;2023-04-22T11:49:58;100114.00;;;20.17;54.62
61478;BME280;47345;52.334;10.392;2023-04-22T11:52:47;100106.90;;;20.23;55.16
61478;BME280;47345;52.334;10.392;2023-04-22T11:55:21;100100.80;;;20.29;55.33
61478;BME280;47345;52.334;10.392;2023-04-22T11:57:56;100100.40;;;20.32;54.14
61478;BME280;47345;52.334;10.392;2023-04-22T12:00:32;100096.18;;;20.31;53.33
61478;BME280;47345;52.334;10.392;2023-04-22T12:03:04;100097.94;;;20.33;53.06
61478;BME280;47345;52.334;10.392;2023-04-22T12:05:40;100096.31;;;20.36;52.59
61478;BME280;47345;52.334;10.392;2023-04-22T12:08:13;100088.00;;;20.40;52.67
61478;BME280;47345;52.334;10.392;2023-04-22T12:10:45;100087.19;;;20.46;52.42
61478;BME280;47345;52.334;10.392;2023-04-22T12:13:20;100084.83;;;20.50;52.01
61478;BME280;47345;52.334;10.392;2023-04-22T12:15:54;100078.41;;;20.54;50.95
61478;BME280;47345;52.334;10.392;2023-04-22T12:18:32;100079.66;;;20.62;50.80
61478;BME280;47345;52.334;10.392;2023-04-22T12:21:08;100076.45;;;20.67;51.11
61478;BME280;47345;52.334;10.392;2023-04-22T12:23:43;100079.63;;;20.71;51.18
61478;BME280;47345;52.334;10.392;2023-04-22T12:26:15;100068.13;;;20.71;50.04
61478;BME280;47345;52.334;10.392;2023-04-22T12:28:46;100075.24;;;20.70;48.09
61478;BME280;47345;52.334;10.392;2023-04-22T12:31:17;100070.95;;;20.72;47.34
61478;BME280;47345;52.334;10.392;2023-04-22T12:33:48;100065.77;;;20.77;46.96
61478;BME280;47345;52.334;10.392;2023-04-22T12:36:19;100065.35;;;20.86;45.68
61478;BME280;47345;52.334;10.392;2023-04-22T12:38:50;100064.15;;;20.95;43.86
61478;BME280;47345;52.334;10.392;2023-04-22T12:41:20;100064.08;;;21.02;43.42
61478;BME280;47345;52.334;10.392;2023-04-22T12:43:52;100060.11;;;21.05;42.85
61478;BME280;47345;52.334;10.392;2023-04-22T12:46:23;100060.00;;;21.09;42.49
61478;BME280;47345;52.334;10.392;2023-04-22T12:48:54;100062.20;;;21.11;41.55
61478;BME280;47345;52.334;10.392;2023-04-22T12:51:24;100059.73;;;21.13;42.51
61478;BME280;47345;52.334;10.392;2023-04-22T12:53:55;100052.83;;;21.14;42.13
61478;BME280;47345;52.334;10.392;2023-04-22T12:56:26;100050.18;;;21.13;41.53
61478;BME280;47345;52.334;10.392;2023-04-22T12:58:57;100053.25;;;21.12;42.15
61478;BME280;47345;52.334;10.392;2023-04-22T13:01:31;100050.71;;;21.09;42.65